createdAt,value
2018-10-07T00:01:31.102Z,17.40
2018-10-07T00:06:34.819Z,17.50
2018-10-07T00:11:38.556Z,17.50
2018-10-07T00:16:42.323Z,17.50
2018-10-07T00:21:46.011Z,17.50
2018-10-07T00:26:49.732Z,17.50
2018-10-07T00:31:58.879Z,17.50
2018-10-07T00:37:02.571Z,17.50
2018-10-07T00:42:06.339Z,17.50
2018-10-07T00:47:10.067Z,17.50
2018-10-07T00:52:13.823Z,17.60
2018-10-07T00:57:17.579Z,17.60
2018-10-07T01:02:21.303Z,17.60
2018-10-07T01:07:25.051Z,17.60
2018-10-07T01:12:28.800Z,17.60
2018-10-07T01:17:32.568Z,17.60
2018-10-07T01:22:36.315Z,17.60
2018-10-07T01:27:40.167Z,17.60
2018-10-07T01:32:43.859Z,17.60
2018-10-07T01:37:47.894Z,17.60
2018-10-07T01:42:51.615Z,17.60
2018-10-07T01:47:55.340Z,17.50
2018-10-07T01:52:59.079Z,17.50
2018-10-07T01:58:02.813Z,17.40
2018-10-07T02:03:06.548Z,17.30
2018-10-07T02:08:10.270Z,17.30
2018-10-07T02:13:13.996Z,17.20
2018-10-07T02:18:17.955Z,17.20
2018-10-07T02:23:21.687Z,17.10
2018-10-07T02:28:25.391Z,17.10
2018-10-07T02:33:29.187Z,17.00
2018-10-07T02:38:32.909Z,16.90
2018-10-07T02:43:36.659Z,16.70
2018-10-07T02:48:40.369Z,16.60
2018-10-07T02:53:44.076Z,16.60
2018-10-07T02:58:47.884Z,16.40
2018-10-07T03:03:51.611Z,16.40
2018-10-07T03:08:55.367Z,16.30
2018-10-07T03:13:59.082Z,16.10
2018-10-07T03:19:03.117Z,15.80
2018-10-07T03:24:07.117Z,15.50
2018-10-07T03:29:10.844Z,15.20
2018-10-07T03:34:14.551Z,15.00
2018-10-07T03:39:18.255Z,14.90
2018-10-07T03:44:21.972Z,14.90
2018-10-07T03:49:25.697Z,14.80
2018-10-07T03:54:29.415Z,14.70
2018-10-07T03:59:33.136Z,14.70
2018-10-07T04:04:36.859Z,14.60
2018-10-07T04:09:40.603Z,14.60
2018-10-07T04:14:44.319Z,14.60
2018-10-07T04:19:48.027Z,14.50
2018-10-07T04:24:51.735Z,14.40
2018-10-07T04:29:55.433Z,14.30
2018-10-07T04:34:59.155Z,14.20
2018-10-07T04:40:02.956Z,14.30
2018-10-07T04:45:06.589Z,14.30
2018-10-07T04:50:10.328Z,14.30
2018-10-07T04:55:14.032Z,14.30
2018-10-07T05:00:17.784Z,14.30
2018-10-07T05:05:21.484Z,14.30
2018-10-07T05:10:58.164Z,14.30
2018-10-07T05:16:02.906Z,14.10
2018-10-07T05:21:06.718Z,14.00
2018-10-07T05:26:10.398Z,13.80
2018-10-07T05:31:14.128Z,13.80
2018-10-07T05:36:17.851Z,13.80
2018-10-07T05:41:21.589Z,13.70
2018-10-07T05:46:25.311Z,13.80
2018-10-07T05:51:29.025Z,13.70
2018-10-07T05:56:32.719Z,13.60
2018-10-07T06:01:40.865Z,13.70
2018-10-07T06:06:44.597Z,13.70
2018-10-07T06:11:48.311Z,13.60
2018-10-07T06:16:52.037Z,13.60
2018-10-07T06:21:55.740Z,13.60
2018-10-07T06:26:59.464Z,13.50
2018-10-07T06:32:03.196Z,13.40
2018-10-07T06:37:06.985Z,13.30
2018-10-07T06:42:10.686Z,13.40
2018-10-07T06:47:14.413Z,13.50
2018-10-07T06:52:18.144Z,13.50
2018-10-07T06:57:21.870Z,13.60
2018-10-07T07:02:25.571Z,13.60
2018-10-07T07:07:29.295Z,13.70
2018-10-07T07:12:33.016Z,13.90
2018-10-07T07:17:36.753Z,14.00
2018-10-07T07:22:40.465Z,13.90
2018-10-07T07:27:44.185Z,14.00
2018-10-07T07:32:47.943Z,14.10
2018-10-07T07:37:51.676Z,13.90
2018-10-07T07:42:55.397Z,13.90
2018-10-07T07:47:59.119Z,13.80
2018-10-07T07:53:02.848Z,13.80
2018-10-07T07:58:06.558Z,13.80
2018-10-07T08:03:10.292Z,13.90
2018-10-07T08:08:14.004Z,14.00
2018-10-07T08:13:17.728Z,14.10
2018-10-07T08:18:21.431Z,14.10
2018-10-07T08:23:25.294Z,14.30
2018-10-07T08:28:28.995Z,14.40
2018-10-07T08:33:32.832Z,14.40
2018-10-07T08:38:36.671Z,14.40
2018-10-07T08:43:40.395Z,14.40
2018-10-07T08:48:44.119Z,14.40
2018-10-07T08:53:47.844Z,14.60
2018-10-07T08:58:51.751Z,14.60
2018-10-07T09:03:55.464Z,14.60
2018-10-07T09:08:59.267Z,14.60
2018-10-07T09:14:02.968Z,14.70
2018-10-07T09:19:06.684Z,14.70
2018-10-07T09:24:10.399Z,14.80
2018-10-07T09:29:14.123Z,14.80
2018-10-07T09:34:17.833Z,14.90
2018-10-07T09:39:21.652Z,14.90
2018-10-07T09:44:25.252Z,15.00
2018-10-07T09:49:28.980Z,15.20
2018-10-07T09:54:32.692Z,15.30
2018-10-07T09:59:36.427Z,15.30
2018-10-07T10:04:40.274Z,15.40
2018-10-07T10:09:43.877Z,15.30
2018-10-07T10:14:47.594Z,15.30
2018-10-07T10:20:00.870Z,15.40
2018-10-07T10:25:11.445Z,15.40
2018-10-07T10:30:25.620Z,15.40
2018-10-07T10:35:36.647Z,15.40
2018-10-07T10:40:46.975Z,15.30
2018-10-07T10:46:09.460Z,15.40
2018-10-07T10:51:52.739Z,15.50
2018-10-07T10:58:02.663Z,15.60
2018-10-07T11:03:16.439Z,15.70
2018-10-07T11:08:32.639Z,15.70
2018-10-07T11:14:13.397Z,15.80
2018-10-07T11:19:22.102Z,15.80
2018-10-07T11:24:34.507Z,16.00
2018-10-07T11:30:01.179Z,16.00
2018-10-07T11:35:23.036Z,16.20
2018-10-07T11:40:36.340Z,16.30
2018-10-07T11:45:45.184Z,16.50
2018-10-07T11:50:59.821Z,16.40
2018-10-07T11:56:03.539Z,16.40
2018-10-07T12:01:07.290Z,16.70
2018-10-07T12:06:10.988Z,16.70
2018-10-07T12:11:14.728Z,16.40
2018-10-07T12:16:18.498Z,16.20
2018-10-07T12:21:22.199Z,16.20
2018-10-07T12:26:25.923Z,16.20
2018-10-07T12:31:29.697Z,16.20
2018-10-07T12:36:33.391Z,16.20
2018-10-07T12:41:37.107Z,16.30
2018-10-07T12:46:40.844Z,16.50
2018-10-07T12:51:44.975Z,16.60
2018-10-07T12:56:48.899Z,16.60
2018-10-07T13:01:52.627Z,16.60
2018-10-07T13:06:56.367Z,16.60
2018-10-07T13:12:00.079Z,16.50
2018-10-07T13:17:03.791Z,16.40
2018-10-07T13:22:07.503Z,16.30
2018-10-07T13:27:11.220Z,16.50
2018-10-07T13:32:15.041Z,16.70
2018-10-07T13:37:18.740Z,16.60
2018-10-07T13:42:22.451Z,16.40
2018-10-07T13:47:26.179Z,16.40
2018-10-07T13:52:29.892Z,16.40
2018-10-07T13:57:33.608Z,16.50
2018-10-07T14:02:37.327Z,16.50
2018-10-07T14:07:41.075Z,16.30
2018-10-07T14:12:44.812Z,16.30
2018-10-07T14:17:48.522Z,16.30
2018-10-07T14:22:52.271Z,16.50
2018-10-07T14:27:55.996Z,16.70
2018-10-07T14:32:59.699Z,16.90
2018-10-07T14:38:03.424Z,17.00
2018-10-07T14:43:07.150Z,17.00
2018-10-07T14:48:10.884Z,16.90
2018-10-07T14:53:14.596Z,17.10
2018-10-07T14:58:18.319Z,17.10
2018-10-07T15:03:22.048Z,17.10
2018-10-07T15:08:25.791Z,17.00
2018-10-07T15:13:29.492Z,17.00
2018-10-07T15:18:33.208Z,17.10
2018-10-07T15:23:36.943Z,17.10
2018-10-07T15:28:40.655Z,17.10
2018-10-07T15:33:44.364Z,17.00
2018-10-07T15:38:48.092Z,16.90
2018-10-07T15:43:51.812Z,17.00
2018-10-07T15:48:55.522Z,17.00
2018-10-07T15:53:59.312Z,16.90
2018-10-07T15:59:03.100Z,16.90
2018-10-07T16:04:06.816Z,16.90
2018-10-07T16:09:10.824Z,16.90
2018-10-07T16:14:14.619Z,16.80
2018-10-07T16:19:18.359Z,16.70
2018-10-07T16:24:22.194Z,16.70
2018-10-07T16:29:25.960Z,16.60
2018-10-07T16:34:29.676Z,16.60
2018-10-07T16:39:33.956Z,16.50
2018-10-07T16:44:37.675Z,16.40
2018-10-07T16:49:41.399Z,16.30
2018-10-07T16:54:45.168Z,16.20
2018-10-07T16:59:48.914Z,16.20
2018-10-07T17:04:52.627Z,16.10
2018-10-07T17:09:56.349Z,16.10
2018-10-07T17:15:00.062Z,16.10
2018-10-07T17:20:03.764Z,16.00
2018-10-07T17:25:07.482Z,15.90
2018-10-07T17:30:11.192Z,15.90
2018-10-07T17:35:14.936Z,15.80
2018-10-07T17:40:18.684Z,15.80
2018-10-07T17:45:22.740Z,15.70
2018-10-07T17:50:26.458Z,15.60
2018-10-07T17:55:30.167Z,15.60
2018-10-07T18:00:33.897Z,15.50
2018-10-07T18:05:37.692Z,15.50
2018-10-07T18:10:41.436Z,15.40
2018-10-07T18:15:45.140Z,15.30
2018-10-07T18:20:48.983Z,15.20
2018-10-07T18:25:52.693Z,15.20
2018-10-07T18:30:56.436Z,15.10
2018-10-07T18:36:00.244Z,15.00
2018-10-07T18:41:03.963Z,14.90
2018-10-07T18:46:07.684Z,14.90
2018-10-07T18:51:11.512Z,14.80
2018-10-07T18:56:15.252Z,14.70
2018-10-07T19:01:18.984Z,14.70
2018-10-07T19:06:22.727Z,14.50
2018-10-07T19:11:26.452Z,14.40
2018-10-07T19:16:30.139Z,14.40
2018-10-07T19:21:33.847Z,14.40
2018-10-07T19:26:37.568Z,14.40
2018-10-07T19:31:41.295Z,14.30
2018-10-07T19:36:45.076Z,14.30
2018-10-07T19:41:48.727Z,14.20
2018-10-07T19:46:52.459Z,14.10
2018-10-07T19:51:56.187Z,14.10
2018-10-07T19:57:00.031Z,14.00
2018-10-07T20:02:03.768Z,13.90
2018-10-07T20:07:07.504Z,13.80
2018-10-07T20:12:11.247Z,13.80
2018-10-07T20:17:15.043Z,13.70
2018-10-07T20:22:19.016Z,13.60
2018-10-07T20:27:22.768Z,13.60
2018-10-07T20:32:26.484Z,13.50
2018-10-07T20:37:30.227Z,13.50
2018-10-07T20:42:34.070Z,13.40
2018-10-07T20:47:37.787Z,13.30
2018-10-07T20:52:41.507Z,13.20
2018-10-07T20:57:45.366Z,13.20
2018-10-07T21:02:49.180Z,13.10
2018-10-07T21:07:53.004Z,13.10
2018-10-07T21:12:56.723Z,13.10
2018-10-07T21:18:00.771Z,13.00
2018-10-07T21:23:04.687Z,12.90
2018-10-07T21:28:08.494Z,12.90
2018-10-07T21:33:12.215Z,12.80
2018-10-07T21:38:15.940Z,12.80
2018-10-07T21:43:19.664Z,12.80
2018-10-07T21:48:23.406Z,12.70
2018-10-07T21:53:27.138Z,12.60
2018-10-07T21:58:30.854Z,12.60
2018-10-07T22:03:34.655Z,12.50
2018-10-07T22:08:38.416Z,12.40
2018-10-07T22:13:42.148Z,12.40
2018-10-07T22:18:45.923Z,12.30
2018-10-07T22:23:50.465Z,12.20
2018-10-07T22:28:54.210Z,12.10
2018-10-07T22:33:57.962Z,12.10
2018-10-07T22:39:01.688Z,12.10
2018-10-07T22:44:05.667Z,12.00
2018-10-07T22:49:09.390Z,11.90
2018-10-07T22:54:13.141Z,11.90
2018-10-07T22:59:17.295Z,11.90
2018-10-07T23:04:20.971Z,11.90
2018-10-07T23:09:24.727Z,11.80
2018-10-07T23:14:28.426Z,11.70
2018-10-07T23:19:32.380Z,11.70
2018-10-07T23:24:36.088Z,11.70
2018-10-07T23:29:39.824Z,11.70
2018-10-07T23:34:43.528Z,11.60
2018-10-07T23:39:47.262Z,11.60
2018-10-07T23:44:52.327Z,11.50
2018-10-07T23:49:56.078Z,11.50
2018-10-07T23:54:59.775Z,11.50
